Time;durP1;ratioP1;P1;durP2;ratioP2;P2;SDS_P1;SDS_P2;PMS_P1;PMS_P2;Temp;Humidity;BMP_temperature;BMP_pressure;BME280_temperature;BME280_humidity;BME280_pressure;Samples;Min_cycle;Max_cycle;Signal;HPM_P1;HPM_P2
2023/09/22 00:01:21;;;;;;;7.45;4.60;;;;;;;24.37;57.74;99422.81;5031435;27;96907;-75
2023/09/22 00:03:49;;;;;;;10.43;3.65;;;;;;;24.35;57.98;99422.19;5035380;27;99338;-74
2023/09/22 00:06:17;;;;;;;9.98;3.25;;;;;;;24.47;57.45;99431.59;5034585;27;98853;-74
2023/09/22 00:08:45;;;;;;;10.23;3.40;;;;;;;24.54;57.65;99430.72;5032017;28;96704;-74
2023/09/22 00:11:12;;;;;;;11.32;3.83;;;;;;;24.48;57.69;99425.16;5028653;27;96856;-74
2023/09/22 00:13:38;;;;;;;8.07;3.88;;;;;;;24.49;57.24;99429.53;5030626;27;98934;-73
2023/09/22 00:16:05;;;;;;;7.93;3.55;;;;;;;24.62;57.51;99419.00;5030288;27;100117;-75
2023/09/22 00:18:32;;;;;;;10.50;3.50;;;;;;;24.62;57.21;99421.69;5022664;27;97953;-76
2023/09/22 00:21:00;;;;;;;6.38;3.47;;;;;;;24.66;57.21;99411.41;5029879;27;97142;-75
2023/09/22 00:23:26;;;;;;;10.63;3.45;;;;;;;24.57;57.15;99407.91;5030801;28;99219;-72
2023/09/22 00:25:53;;;;;;;8.07;4.10;;;;;;;24.62;57.17;99427.94;5027952;27;98735;-71
2023/09/22 00:28:19;;;;;;;12.77;3.70;;;;;;;24.55;57.23;99450.44;5030864;28;96724;-72
2023/09/22 00:30:46;;;;;;;6.28;3.33;;;;;;;24.51;57.44;99447.25;5029064;27;96748;-71
2023/09/22 00:33:12;;;;;;;6.15;4.35;;;;;;;24.41;57.83;99446.63;5031180;28;99137;-72
2023/09/22 00:35:39;;;;;;;10.73;3.97;;;;;;;24.27;58.67;99451.88;5029436;27;97997;-72
2023/09/22 00:38:06;;;;;;;9.07;3.90;;;;;;;24.35;58.22;99441.88;5030140;27;96859;-73
2023/09/22 00:40:33;;;;;;;10.68;4.00;;;;;;;24.14;59.02;99449.69;5029837;27;96900;-71
2023/09/22 00:43:07;;;;;;;12.75;4.00;;;;;;;24.20;58.87;99460.69;5030016;27;99038;-71
2023/09/22 00:45:35;;;;;;;10.35;4.10;;;;;;;24.36;58.26;99451.69;5028733;27;99215;-70
2023/09/22 00:48:02;;;;;;;7.65;4.50;;;;;;;24.27;58.73;99447.34;5030599;27;97718;-71
2023/09/22 00:50:29;;;;;;;7.32;4.57;;;;;;;24.21;58.74;99451.56;5029063;27;98760;-72
2023/09/22 00:52:55;;;;;;;18.15;4.85;;;;;;;24.17;59.07;99454.75;5029439;27;99587;-71
2023/09/22 00:55:23;;;;;;;7.45;4.43;;;;;;;24.22;59.05;99444.28;5028921;27;98982;-70
2023/09/22 00:57:52;;;;;;;6.57;4.18;;;;;;;24.49;58.15;99443.03;5029202;27;97162;-71
2023/09/22 01:00:19;;;;;;;9.23;4.93;;;;;;;24.45;58.11;99453.34;5028986;27;97198;-71
2023/09/22 01:02:46;;;;;;;9.43;4.57;;;;;;;24.39;58.79;99453.19;5027269;27;98264;-71
2023/09/22 01:05:12;;;;;;;9.40;4.45;;;;;;;24.66;57.64;99449.22;5029664;27;98885;-71
2023/09/22 01:07:39;;;;;;;11.70;5.00;;;;;;;24.38;58.83;99446.13;5027998;27;97121;-71
2023/09/22 01:10:09;;;;;;;9.02;5.05;;;;;;;24.44;58.51;99448.13;5031936;27;96952;-75
2023/09/22 01:12:37;;;;;;;11.95;5.03;;;;;;;24.35;58.65;99446.47;5025797;27;100756;-74
2023/09/22 01:15:05;;;;;;;8.23;5.20;;;;;;;24.56;58.53;99452.13;5023594;27;98918;-74
2023/09/22 01:17:31;;;;;;;12.15;5.82;;;;;;;24.30;59.37;99444.28;5029330;27;96794;-75
2023/09/22 01:19:57;;;;;;;13.68;5.47;;;;;;;24.26;59.29;99453.75;5027333;27;97306;-75
2023/09/22 01:22:25;;;;;;;17.08;5.40;;;;;;;24.27;59.69;99454.59;5035789;27;102039;-74
2023/09/22 01:24:52;;;;;;;12.18;5.47;;;;;;;24.31;59.45;99462.16;5044182;27;98908;-74
2023/09/22 01:27:18;;;;;;;13.75;6.30;;;;;;;24.41;59.23;99459.28;5039932;27;98656;-74
2023/09/22 01:29:44;;;;;;;12.40;5.70;;;;;;;24.26;59.45;99458.31;5035901;27;96934;-74
2023/09/22 01:32:11;;;;;;;14.43;6.15;;;;;;;24.47;58.77;99456.72;5032321;27;101519;-74
2023/09/22 01:34:38;;;;;;;10.82;5.95;;;;;;;24.36;59.51;99454.38;5046908;27;98735;-73
2023/09/22 01:37:07;;;;;;;9.48;5.70;;;;;;;24.52;58.95;99454.34;5030299;27;96902;-74
2023/09/22 01:39:35;;;;;;;9.52;5.60;;;;;;;24.39;59.50;99447.81;5047262;27;96835;-73
2023/09/22 01:42:01;;;;;;;13.63;5.65;;;;;;;24.59;58.37;99460.72;5030398;27;99031;-75
2023/09/22 01:44:28;;;;;;;9.98;6.18;;;;;;;24.41;59.18;99470.91;5043608;27;98883;-75
2023/09/22 01:46:54;;;;;;;14.95;6.13;;;;;;;24.28;59.99;99478.72;5037452;27;97724;-74
2023/09/22 01:49:21;;;;;;;11.95;6.03;;;;;;;24.27;60.29;99481.59;5033506;27;96833;-74
2023/09/22 01:51:47;;;;;;;10.80;6.30;;;;;;;24.17;60.32;99485.28;5039832;27;98912;-74
2023/09/22 01:54:13;;;;;;;8.90;5.75;;;;;;;24.26;60.09;99485.28;5034475;27;98822;-75
2023/09/22 01:56:41;;;;;;;9.38;5.90;;;;;;;24.06;60.49;99490.19;5020533;27;96807;-74
2023/09/22 01:59:08;;;;;;;8.55;6.10;;;;;;;24.12;60.81;99501.13;5028336;27;96788;-74
2023/09/22 02:01:35;;;;;;;10.40;5.95;;;;;;;24.16;61.15;99498.94;5028443;27;98083;-74
2023/09/22 02:04:01;;;;;;;12.35;5.97;;;;;;;24.16;60.72;99490.84;5028432;27;98824;-74
2023/09/22 02:06:27;;;;;;;12.10;5.72;;;;;;;24.27;60.64;99493.22;5019842;27;98145;-75
2023/09/22 02:08:54;;;;;;;10.93;6.53;;;;;;;24.30;60.02;99489.31;5026158;27;98930;-74
2023/09/22 02:11:20;;;;;;;14.05;6.03;;;;;;;24.25;60.32;99495.25;5029771;28;97921;-74
2023/09/22 02:13:48;;;;;;;11.20;6.30;;;;;;;24.24;60.47;99498.94;5029989;27;98949;-73
2023/09/22 02:16:14;;;;;;;12.82;6.22;;;;;;;24.25;60.31;99500.63;5032515;27;96637;-74
2023/09/22 02:18:41;;;;;;;7.60;5.53;;;;;;;24.25;60.71;99494.41;5023217;27;96936;-74
2023/09/22 02:21:07;;;;;;;14.27;5.55;;;;;;;24.25;60.63;99491.69;5028588;27;98837;-74
2023/09/22 02:23:35;;;;;;;10.35;5.65;;;;;;;24.39;59.76;99491.84;5028995;27;98038;-75
2023/09/22 02:26:06;;;;;;;11.38;5.82;;;;;;;24.26;59.98;99501.50;5027791;27;96984;-74
2023/09/22 02:28:32;;;;;;;12.27;6.28;;;;;;;24.41;60.04;99494.38;5023886;27;96839;-75
2023/09/22 02:31:00;;;;;;;9.07;5.05;;;;;;;24.15;60.39;99508.91;5028204;28;100077;-75
2023/09/22 02:33:26;;;;;;;10.73;6.00;;;;;;;24.16;60.82;99510.56;5028726;27;101726;-74
2023/09/22 02:35:53;;;;;;;11.13;6.18;;;;;;;24.20;60.83;99514.66;5027580;28;97061;-74
2023/09/22 02:38:19;;;;;;;11.63;5.20;;;;;;;24.34;60.08;99514.97;5027919;27;97014;-74
2023/09/22 02:40:46;;;;;;;7.22;5.57;;;;;;;24.26;60.38;99510.44;5028340;27;98955;-76
2023/09/22 02:43:12;;;;;;;8.60;5.45;;;;;;;24.22;60.80;99514.47;5027831;27;99238;-74
2023/09/22 02:45:40;;;;;;;7.20;5.15;;;;;;;24.29;60.12;99518.16;5025867;27;96817;-75
2023/09/22 02:48:08;;;;;;;12.80;5.88;;;;;;;24.12;61.32;99530.81;5020731;27;97110;-75
2023/09/22 02:50:34;;;;;;;9.07;5.78;;;;;;;24.08;61.19;99540.28;5026782;27;100237;-75
2023/09/22 02:53:03;;;;;;;9.20;5.50;;;;;;;24.14;61.15;99552.25;5028519;27;98057;-75
2023/09/22 02:55:30;;;;;;;9.13;5.32;;;;;;;24.33;60.62;99557.31;5027363;27;96911;-76
2023/09/22 02:57:56;;;;;;;11.82;5.07;;;;;;;24.33;60.73;99556.47;5028385;27;96818;-75
2023/09/22 03:00:23;;;;;;;8.60;5.00;;;;;;;24.23;60.82;99560.19;5022713;27;98911;-74
2023/09/22 03:02:50;;;;;;;8.02;5.32;;;;;;;24.33;60.58;99548.38;5026512;27;98345;-75
2023/09/22 03:05:18;;;;;;;9.30;5.90;;;;;;;24.39;60.20;99561.19;5028557;27;96769;-75
2023/09/22 03:07:45;;;;;;;7.47;5.18;;;;;;;24.14;61.30;99569.28;5028341;27;96945;-74
2023/09/22 03:10:11;;;;;;;8.25;5.82;;;;;;;24.24;61.15;99574.53;5026671;27;99915;-74
2023/09/22 03:12:38;;;;;;;9.82;5.20;;;;;;;24.28;61.11;99577.75;5025845;27;97685;-75
2023/09/22 03:15:09;;;;;;;7.75;5.20;;;;;;;24.18;61.79;99578.72;5022525;27;97023;-75
2023/09/22 03:17:36;;;;;;;7.80;4.78;;;;;;;24.16;62.25;99578.03;5028816;27;96783;-75
2023/09/22 03:20:03;;;;;;;11.75;5.85;;;;;;;24.12;62.65;99576.69;5028223;27;99136;-75
2023/09/22 03:22:30;;;;;;;10.23;4.75;;;;;;;24.22;62.49;99587.34;5027105;27;99089;-76
2023/09/22 03:24:57;;;;;;;7.95;4.32;;;;;;;23.94;63.72;99594.06;5029229;28;96677;-74
2023/09/22 03:27:24;;;;;;;5.80;3.03;;;;;;;23.56;65.68;99592.84;5028143;27;96764;-74
2023/09/22 03:29:51;;;;;;;5.60;3.20;;;;;;;23.53;67.03;99596.69;5028467;27;99414;-74
2023/09/22 03:32:18;;;;;;;3.50;2.80;;;;;;;23.44;67.90;99603.88;5030838;27;98776;-74
2023/09/22 03:34:47;;;;;;;5.68;2.88;;;;;;;23.39;68.52;99608.06;5030702;27;97078;-75
2023/09/22 03:37:14;;;;;;;3.97;2.50;;;;;;;23.63;67.37;99612.75;5027487;27;96780;-75
2023/09/22 03:39:42;;;;;;;3.20;2.22;;;;;;;23.42;67.35;99622.09;5028761;27;99200;-74
2023/09/22 03:42:09;;;;;;;5.00;1.83;;;;;;;23.48;68.01;99633.25;5031764;27;99043;-74
2023/09/22 03:44:35;;;;;;;3.63;2.22;;;;;;;23.51;68.25;99649.09;5029765;27;96791;-74
2023/09/22 03:47:02;;;;;;;5.43;1.73;;;;;;;23.20;69.27;99646.91;5029568;27;96787;-74
2023/09/22 03:49:28;;;;;;;1.90;1.48;;;;;;;23.19;69.17;99653.31;5025203;27;98587;-75
2023/09/22 03:51:55;;;;;;;1.40;1.30;;;;;;;23.18;69.19;99650.75;5025800;27;100011;-75
2023/09/22 03:54:21;;;;;;;2.80;1.90;;;;;;;23.28;69.79;99649.66;5031534;27;96772;-74
2023/09/22 03:56:49;;;;;;;3.03;1.17;;;;;;;23.25;69.38;99657.19;5029848;27;97051;-74
2023/09/22 03:59:15;;;;;;;2.70;1.30;;;;;;;23.10;69.73;99664.22;5031668;28;98920;-75
2023/09/22 04:01:42;;;;;;;4.03;1.38;;;;;;;22.97;70.96;99670.88;5030773;27;97772;-74
2023/09/22 04:04:08;;;;;;;1.60;1.30;;;;;;;23.02;71.22;99673.09;5031121;27;96808;-74
2023/09/22 04:06:35;;;;;;;1.70;1.42;;;;;;;22.81;72.41;99669.94;5030562;28;96748;-74
2023/09/22 04:09:07;;;;;;;3.42;1.83;;;;;;;22.87;73.11;99666.59;5025225;27;97832;-74
2023/09/22 04:11:33;;;;;;;4.13;1.75;;;;;;;22.95;72.79;99672.91;5027769;27;100967;-74
2023/09/22 04:14:01;;;;;;;4.35;1.75;;;;;;;22.84;73.01;99677.72;5030213;27;96618;-74
2023/09/22 04:16:27;;;;;;;3.65;1.88;;;;;;;22.93;73.00;99680.28;5030536;27;97614;-75
2023/09/22 04:18:54;;;;;;;3.05;1.35;;;;;;;22.99;72.98;99681.47;5030799;27;99328;-73
2023/09/22 04:21:22;;;;;;;4.00;1.60;;;;;;;23.04;72.79;99666.53;5029231;27;99239;-74
2023/09/22 04:23:51;;;;;;;3.72;1.60;;;;;;;23.27;71.21;99660.59;5029418;27;96980;-74
2023/09/22 04:26:18;;;;;;;4.05;2.05;;;;;;;23.24;72.43;99658.19;5031209;27;96752;-74
2023/09/22 04:28:46;;;;;;;4.30;1.55;;;;;;;23.12;72.61;99659.50;5030349;27;99033;-74
2023/09/22 04:31:14;;;;;;;3.83;1.40;;;;;;;23.19;71.68;99637.13;5028792;27;97533;-73
2023/09/22 04:33:41;;;;;;;4.15;1.65;;;;;;;22.96;73.94;99633.34;5030085;28;96876;-73
2023/09/22 04:36:10;;;;;;;9.00;2.45;;;;;;;23.00;73.00;99643.63;5030767;27;97346;-74
2023/09/22 04:38:38;;;;;;;3.15;1.83;;;;;;;22.95;73.83;99648.66;5029006;27;98921;-74
2023/09/22 04:41:06;;;;;;;2.63;1.50;;;;;;;22.73;75.04;99646.47;5029540;27;100355;-74
2023/09/22 04:43:35;;;;;;;4.38;1.50;;;;;;;22.63;75.93;99643.88;5029676;27;97155;-74
2023/09/22 04:46:09;;;;;;;9.02;1.67;;;;;;;22.72;75.96;99660.06;5033259;28;96907;-77
2023/09/22 04:48:36;;;;;;;3.15;1.20;;;;;;;22.85;74.73;99637.13;5029805;27;101942;-75
2023/09/22 04:51:04;;;;;;;4.03;1.30;;;;;;;22.71;76.27;99642.25;5029301;27;98804;-75
2023/09/22 04:53:30;;;;;;;5.07;1.42;;;;;;;22.66;75.82;99646.22;5028175;27;99229;-74
2023/09/22 04:56:01;;;;;;;5.55;1.65;;;;;;;22.29;77.77;99663.59;5031431;28;96744;-74
2023/09/22 04:58:28;;;;;;;3.78;1.95;;;;;;;22.39;78.37;99651.75;5029658;27;98901;-73
2023/09/22 05:00:58;;;;;;;6.18;2.53;;;;;;;22.13;78.94;99653.53;5020654;27;97494;-80
2023/09/22 05:03:26;;;;;;;3.70;1.30;;;;;;;22.43;77.79;99674.69;5022839;27;97535;-78
2023/09/22 05:06:04;;;;;;;2.58;1.42;;;;;;;22.16;78.57;99685.53;5030354;27;97698;-76
2023/09/22 05:08:36;;;;;;;3.60;1.30;;;;;;;22.32;78.16;99695.59;5030588;27;97974;-77
2023/09/22 05:11:07;;;;;;;7.55;1.73;;;;;;;22.31;78.24;99691.22;5029896;27;97743;-78
2023/09/22 05:13:37;;;;;;;3.20;1.42;;;;;;;22.44;78.10;99684.44;5030009;27;97676;-78
2023/09/22 05:16:05;;;;;;;3.85;1.60;;;;;;;22.47;76.96;99665.28;5030628;27;97592;-74
2023/09/22 05:18:32;;;;;;;3.55;1.70;;;;;;;22.66;76.42;99672.31;5023442;27;97952;-75
2023/09/22 05:21:01;;;;;;;3.78;1.35;;;;;;;22.82;76.08;99674.31;5028226;27;101718;-74
2023/09/22 05:23:29;;;;;;;7.22;2.45;;;;;;;22.83;76.31;99686.78;5022236;27;97840;-75
2023/09/22 05:25:55;;;;;;;4.30;1.80;;;;;;;22.83;76.50;99684.94;5027920;27;97053;-75
2023/09/22 05:28:22;;;;;;;1.98;1.20;;;;;;;22.80;76.42;99687.09;5029670;27;99502;-74
2023/09/22 05:30:48;;;;;;;3.17;1.48;;;;;;;22.72;76.69;99692.38;5029774;27;101328;-74
2023/09/22 05:33:15;;;;;;;3.33;1.25;;;;;;;22.79;75.97;99696.16;5029582;27;97039;-73
2023/09/22 05:35:41;;;;;;;5.30;1.55;;;;;;;22.67;76.80;99695.53;5028399;27;96961;-75
2023/09/22 05:38:11;;;;;;;3.38;1.23;;;;;;;22.69;76.60;99704.31;5034817;27;98596;-74
2023/09/22 05:40:37;;;;;;;3.45;1.33;;;;;;;22.49;77.21;99717.13;5037936;27;98800;-75
2023/09/22 05:43:05;;;;;;;5.18;1.70;;;;;;;22.63;76.78;99716.56;5030225;27;96682;-75
2023/09/22 05:45:31;;;;;;;3.80;1.52;;;;;;;22.36;78.04;99721.19;5035506;27;96882;-75
2023/09/22 05:47:58;;;;;;;3.38;1.52;;;;;;;22.52;77.91;99724.88;5029176;27;98907;-76
2023/09/22 05:50:24;;;;;;;2.80;1.70;;;;;;;22.28;78.76;99740.81;5028062;27;98804;-75
2023/09/22 05:52:51;;;;;;;3.50;1.40;;;;;;;22.60;77.91;99753.72;5029576;27;96930;-75
2023/09/22 05:55:20;;;;;;;4.13;1.20;;;;;;;22.47;76.99;99754.09;5028061;27;97988;-74
2023/09/22 05:57:47;;;;;;;2.60;1.33;;;;;;;22.40;77.00;99779.94;5028390;27;97930;-74
2023/09/22 06:00:16;;;;;;;6.28;1.60;;;;;;;22.36;78.30;99781.25;5029884;27;98513;-75
2023/09/22 06:02:46;;;;;;;2.20;1.70;;;;;;;22.32;78.42;99782.53;5021361;27;97610;-72
2023/09/22 06:05:12;;;;;;;4.45;1.25;;;;;;;22.34;78.68;99798.53;5023089;27;98025;-75
2023/09/22 06:07:38;;;;;;;3.72;1.33;;;;;;;22.46;77.99;99800.00;5023152;27;98909;-73
2023/09/22 06:10:06;;;;;;;1.67;1.58;;;;;;;22.54;77.88;99800.94;5028751;27;97976;-73
2023/09/22 06:12:34;;;;;;;5.80;1.70;;;;;;;22.47;78.24;99796.31;5024951;27;96768;-73
2023/09/22 06:15:00;;;;;;;4.55;2.22;;;;;;;22.52;77.60;99786.78;5028851;27;96727;-75
2023/09/22 06:17:27;;;;;;;6.68;1.70;;;;;;;22.54;77.34;99790.19;5029713;27;97771;-76
2023/09/22 06:19:53;;;;;;;3.58;1.45;;;;;;;22.51;77.99;99814.69;5026797;27;99359;-74
2023/09/22 06:22:20;;;;;;;13.93;2.25;;;;;;;22.54;78.12;99813.56;5028199;27;96903;-76
2023/09/22 06:24:47;;;;;;;3.42;1.73;;;;;;;22.72;77.50;99800.94;5026950;27;96795;-73
2023/09/22 06:27:13;;;;;;;5.45;1.85;;;;;;;22.82;77.70;99790.13;5028204;27;99094;-71
2023/09/22 06:29:41;;;;;;;5.57;1.75;;;;;;;22.75;77.54;99805.22;5027918;27;100838;-71
2023/09/22 06:32:08;;;;;;;1.73;1.40;;;;;;;22.88;76.54;99809.22;5022466;27;97026;-72
2023/09/22 06:34:34;;;;;;;3.40;1.70;;;;;;;22.74;77.72;99830.44;5023745;27;99602;-72
2023/09/22 06:37:01;;;;;;;2.70;1.63;;;;;;;22.81;77.05;99816.22;5026733;27;99055;-71
2023/09/22 06:39:27;;;;;;;2.10;1.45;;;;;;;22.83;76.58;99821.44;5029111;27;99228;-74
2023/09/22 06:41:54;;;;;;;4.47;1.55;;;;;;;22.84;76.39;99825.84;5025861;27;96891;-75
2023/09/22 06:44:20;;;;;;;4.53;1.80;;;;;;;22.80;76.86;99835.22;5030498;27;96836;-74
2023/09/22 06:46:49;;;;;;;3.70;1.45;;;;;;;22.90;75.86;99830.59;5026982;27;98940;-74
2023/09/22 06:49:16;;;;;;;6.57;1.90;;;;;;;23.01;75.14;99825.81;5025708;27;99204;-74
2023/09/22 06:51:42;;;;;;;2.72;1.50;;;;;;;23.06;74.88;99836.13;5026185;27;96792;-75
2023/09/22 06:54:10;;;;;;;1.95;1.58;;;;;;;22.98;75.64;99833.34;5028689;27;97819;-75
2023/09/22 06:56:38;;;;;;;5.40;2.40;;;;;;;23.20;74.72;99824.78;5027651;27;97801;-74
2023/09/22 06:59:07;;;;;;;4.30;1.85;;;;;;;23.23;74.99;99831.72;5026532;27;98497;-76
2023/09/22 07:01:34;;;;;;;4.63;1.90;;;;;;;23.03;75.63;99841.84;5025278;27;96837;-74
2023/09/22 07:04:03;;;;;;;22.92;3.35;;;;;;;23.19;74.50;99846.50;5021088;27;96849;-75
2023/09/22 07:06:30;;;;;;;4.93;2.28;;;;;;;23.13;75.28;99855.19;5030964;27;99633;-75
2023/09/22 07:08:57;;;;;;;4.25;2.00;;;;;;;23.13;74.71;99858.75;5029643;27;101104;-75
2023/09/22 07:11:24;;;;;;;15.70;2.17;;;;;;;23.09;74.77;99862.75;5030947;27;96724;-74
2023/09/22 07:13:50;;;;;;;5.05;1.83;;;;;;;23.17;74.01;99857.41;5028734;27;97789;-74
2023/09/22 07:16:16;;;;;;;3.38;1.70;;;;;;;23.17;74.77;99865.50;5029540;28;100831;-74
2023/09/22 07:18:43;;;;;;;4.43;1.88;;;;;;;23.18;74.11;99869.03;5030966;27;99322;-74
2023/09/22 07:21:11;;;;;;;9.23;1.90;;;;;;;23.21;74.33;99874.13;5031432;27;96926;-76
2023/09/22 07:23:38;;;;;;;3.75;1.58;;;;;;;23.20;74.12;99886.75;5029682;27;97007;-75
2023/09/22 07:26:06;;;;;;;3.67;1.52;;;;;;;23.01;74.18;99886.94;5029697;27;97543;-74
2023/09/22 07:28:34;;;;;;;8.57;1.88;;;;;;;22.99;74.70;99892.47;5030245;27;98938;-74
2023/09/22 07:31:00;;;;;;;8.60;1.60;;;;;;;22.89;75.53;99893.56;5031454;27;97355;-76
2023/09/22 07:33:30;;;;;;;11.98;1.90;;;;;;;22.86;75.36;99883.06;5035039;27;97271;-74
2023/09/22 07:35:58;;;;;;;3.88;1.60;;;;;;;22.83;75.65;99894.19;5035617;27;99626;-75
2023/09/22 07:38:27;;;;;;;2.88;1.55;;;;;;;23.01;74.67;99895.03;5039371;27;99527;-75
2023/09/22 07:40:53;;;;;;;6.30;1.30;;;;;;;23.01;73.11;99889.63;5037144;27;97234;-76
2023/09/22 07:43:20;;;;;;;1.80;1.15;;;;;;;22.98;73.78;99900.69;5028897;27;97136;-75
2023/09/22 07:45:46;;;;;;;2.15;1.30;;;;;;;23.01;73.33;99920.13;5033691;27;97840;-74
2023/09/22 07:48:13;;;;;;;2.85;1.10;;;;;;;22.90;72.44;99922.19;5028924;27;97778;-74
2023/09/22 07:50:40;;;;;;;3.25;1.20;;;;;;;22.98;72.52;99916.88;5027073;27;98664;-74
2023/09/22 07:53:06;;;;;;;3.00;1.17;;;;;;;23.00;72.48;99917.56;5029586;27;96896;-73
2023/09/22 07:55:34;;;;;;;3.85;1.58;;;;;;;22.92;72.36;99920.16;5029696;27;97935;-74
2023/09/22 07:58:03;;;;;;;3.97;1.15;;;;;;;22.82;72.32;99916.72;5025304;27;98589;-74
2023/09/22 08:00:30;;;;;;;1.42;1.02;;;;;;;23.09;71.68;99929.28;5027828;27;97507;-74
2023/09/22 08:02:59;;;;;;;6.55;1.35;;;;;;;23.22;71.73;99938.66;5020423;27;97674;-74
2023/09/22 08:05:26;;;;;;;4.40;1.50;;;;;;;23.66;70.12;99941.41;5025525;27;98264;-74
2023/09/22 08:07:53;;;;;;;5.28;1.30;;;;;;;23.57;70.61;99945.03;5031047;27;99225;-73
2023/09/22 08:10:22;;;;;;;2.65;1.60;;;;;;;23.61;70.91;99944.59;5031230;27;97058;-75
2023/09/22 08:12:50;;;;;;;2.72;1.48;;;;;;;23.82;70.38;99947.78;5036355;27;97248;-74
2023/09/22 08:15:17;;;;;;;6.13;2.38;;;;;;;23.81;70.63;99947.94;5030271;27;97699;-74
2023/09/22 08:17:47;;;;;;;1.80;1.42;;;;;;;23.83;70.37;99954.00;5029590;27;100813;-76
2023/09/22 08:20:14;;;;;;;3.08;1.60;;;;;;;23.73;70.34;99951.41;5035484;27;98179;-74
2023/09/22 08:22:41;;;;;;;6.55;3.63;;;;;;;23.33;71.43;99941.13;5026010;27;97081;-74
2023/09/22 08:25:09;;;;;;;7.28;4.03;;;;;;;23.49;70.80;99945.00;5022648;27;99270;-75
2023/09/22 08:27:36;;;;;;;5.35;3.00;;;;;;;23.52;71.17;99947.38;5022531;27;99015;-75
2023/09/22 08:30:10;;;;;;;5.60;3.17;;;;;;;23.73;70.41;99961.34;5033561;27;96730;-75
2023/09/22 08:32:39;;;;;;;2.00;1.67;;;;;;;23.60;71.32;99964.47;5033308;27;97723;-75
2023/09/22 08:35:07;;;;;;;2.35;1.55;;;;;;;23.92;69.97;99974.66;5033075;27;98890;-73
2023/09/22 08:37:36;;;;;;;1.98;1.40;;;;;;;23.96;69.62;99980.59;5035494;27;98197;-74
2023/09/22 08:40:08;;;;;;;4.50;1.60;;;;;;;23.89;70.76;99988.47;5029744;27;97146;-75
2023/09/22 08:42:35;;;;;;;5.00;1.85;;;;;;;23.84;69.56;99990.75;5039543;27;97465;-74
2023/09/22 08:45:01;;;;;;;2.08;1.50;;;;;;;23.66;70.04;99995.34;5029407;27;99055;-74
2023/09/22 08:47:29;;;;;;;1.50;1.17;;;;;;;23.51;71.30;99992.34;5028775;27;98391;-74
2023/09/22 08:49:55;;;;;;;3.83;2.10;;;;;;;23.55;70.10;99998.31;5027379;27;97174;-75
2023/09/22 08:52:23;;;;;;;3.00;1.70;;;;;;;23.30;71.50;99989.94;5034731;27;96955;-74
2023/09/22 08:54:50;;;;;;;4.30;1.75;;;;;;;23.71;70.64;99996.56;5029469;27;101218;-75
2023/09/22 08:57:18;;;;;;;6.20;1.50;;;;;;;23.88;69.60;99994.00;5031844;27;99289;-75
2023/09/22 08:59:45;;;;;;;2.63;1.20;;;;;;;23.67;69.80;99997.91;5032990;27;96762;-74
2023/09/22 09:02:11;;;;;;;2.80;1.30;;;;;;;23.44;71.07;100002.88;5035926;27;98317;-75
2023/09/22 09:04:40;;;;;;;2.50;1.60;;;;;;;23.68;71.12;100001.44;5034047;27;97885;-74
2023/09/22 09:07:06;;;;;;;5.70;2.40;;;;;;;23.59;70.83;100003.22;5025262;27;99270;-75
2023/09/22 09:09:44;;;;;;;3.80;1.58;;;;;;;23.68;70.63;100001.44;5027277;27;96989;-76
2023/09/22 09:12:13;;;;;;;3.92;1.50;;;;;;;23.80;69.06;100008.28;5022170;27;96973;-75
2023/09/22 09:14:39;;;;;;;3.17;1.23;;;;;;;23.71;69.36;100001.13;5029575;27;98893;-76
2023/09/22 09:17:18;;;;;;;6.85;1.40;;;;;;;23.70;69.64;100012.91;5027714;27;100585;-74
2023/09/22 09:19:48;;;;;;;4.90;1.33;;;;;;;23.39;70.14;100018.69;5026074;27;97589;-74
2023/09/22 09:22:14;;;;;;;2.65;1.25;;;;;;;23.47;71.09;100034.13;5028616;27;97491;-75
2023/09/22 09:24:43;;;;;;;2.63;1.10;;;;;;;23.19;70.24;100030.59;5026519;27;97768;-75
2023/09/22 09:27:17;;;;;;;2.22;1.00;;;;;;;23.28;70.84;100037.78;5026465;27;98107;-75
2023/09/22 09:29:44;;;;;;;4.80;1.13;;;;;;;23.37;70.25;100038.69;5033123;27;96814;-75
2023/09/22 09:32:11;;;;;;;4.63;1.33;;;;;;;22.92;71.04;100049.47;5028173;27;96879;-75
2023/09/22 09:34:39;;;;;;;2.53;1.33;;;;;;;22.91;70.80;100051.31;5033192;27;99248;-74
2023/09/22 09:37:13;;;;;;;7.18;1.63;;;;;;;22.80;71.52;100039.91;5031674;27;99418;-74
2023/09/22 09:39:47;;;;;;;4.18;1.10;;;;;;;22.95;71.20;100050.03;5033080;27;97025;-76
2023/09/22 09:42:16;;;;;;;3.22;1.10;;;;;;;22.93;70.60;100046.63;5029830;27;97025;-74
2023/09/22 09:44:49;;;;;;;3.63;1.52;;;;;;;22.99;69.79;100050.56;5026558;27;98895;-73
2023/09/22 09:47:22;;;;;;;1.42;0.98;;;;;;;22.85;70.55;100062.69;5027065;27;101079;-74
2023/09/22 09:49:52;;;;;;;2.83;1.08;;;;;;;23.00;70.24;100063.06;5028330;27;96862;-74
2023/09/22 09:52:25;;;;;;;1.58;0.98;;;;;;;23.00;70.25;100061.22;5029306;27;97333;-75
2023/09/22 09:55:07;;;;;;;3.30;1.20;;;;;;;22.94;70.11;100067.19;5028121;27;98659;-74
2023/09/22 09:57:35;;;;;;;3.85;1.10;;;;;;;22.77;70.33;100068.00;5032112;27;99669;-75
2023/09/22 10:00:04;;;;;;;2.08;1.23;;;;;;;22.74;70.04;100067.44;5031585;27;96868;-74
2023/09/22 10:02:31;;;;;;;1.70;0.88;;;;;;;22.79;70.41;100054.38;5028249;27;97231;-74
2023/09/22 10:04:59;;;;;;;5.13;0.98;;;;;;;22.83;69.56;100061.16;5026679;27;101430;-74
2023/09/22 10:07:28;;;;;;;2.45;0.88;;;;;;;22.74;70.13;100040.50;5032169;27;99081;-76
2023/09/22 10:09:55;;;;;;;1.70;1.08;;;;;;;22.85;69.26;100059.16;5027167;27;97367;-74
2023/09/22 10:12:21;;;;;;;3.50;1.30;;;;;;;22.95;68.79;100054.59;5021115;27;96948;-74
2023/09/22 10:14:51;;;;;;;1.40;1.02;;;;;;;22.92;69.42;100053.03;5030325;27;102406;-74
2023/09/22 10:17:22;;;;;;;5.32;1.27;;;;;;;23.01;69.47;100056.66;5032102;27;98712;-74
2023/09/22 10:19:49;;;;;;;2.75;0.98;;;;;;;22.89;69.78;100063.25;5029034;27;97851;-74
2023/09/22 10:22:15;;;;;;;2.53;1.10;;;;;;;22.97;69.90;100061.50;5030184;27;97911;-74
2023/09/22 10:24:43;;;;;;;3.60;0.90;;;;;;;23.07;69.09;100047.13;5028530;27;99893;-75
2023/09/22 10:27:11;;;;;;;3.63;1.23;;;;;;;23.04;68.35;100035.66;5031361;27;101438;-74
2023/09/22 10:29:43;;;;;;;5.45;2.63;;;;;;;23.26;67.12;100036.22;5028935;27;97020;-75
2023/09/22 10:32:24;;;;;;;2.00;0.98;;;;;;;23.37;67.05;100047.63;5027846;27;97204;-75
2023/09/22 10:34:52;;;;;;;4.72;1.10;;;;;;;23.22;67.30;100051.88;5027906;27;100891;-75
2023/09/22 10:37:19;;;;;;;2.47;0.85;;;;;;;23.01;68.38;100059.38;5027109;27;97893;-74
2023/09/22 10:40:08;;;;;;;2.20;1.10;;;;;;;23.06;68.58;100057.06;5026452;27;97190;-75
2023/09/22 10:42:41;;;;;;;3.85;1.15;;;;;;;23.20;67.67;100053.84;5023758;27;98513;-74
2023/09/22 10:45:08;;;;;;;6.55;1.20;;;;;;;23.10;67.90;100061.16;5025604;27;99563;-74
2023/09/22 10:47:39;;;;;;;3.22;0.95;;;;;;;23.09;66.91;100047.84;5029925;27;99792;-73
2023/09/22 10:50:30;;;;;;;4.13;0.95;;;;;;;23.15;67.11;100056.16;5028484;27;97168;-74
2023/09/22 10:52:58;;;;;;;1.77;0.90;;;;;;;23.40;65.84;100060.81;5029113;27;97272;-75
2023/09/22 10:55:28;;;;;;;6.07;1.10;;;;;;;23.27;66.32;100071.13;5025625;27;100059;-74
2023/09/22 10:57:55;;;;;;;4.90;0.98;;;;;;;23.21;66.05;100055.56;5032142;27;102108;-74
2023/09/22 11:00:22;;;;;;;2.20;1.23;;;;;;;23.46;65.60;100064.75;5025944;27;96942;-75
2023/09/22 11:02:48;;;;;;;3.17;1.00;;;;;;;23.64;64.73;100062.06;5027441;27;98275;-73
2023/09/22 11:05:16;;;;;;;1.52;0.80;;;;;;;23.60;64.83;100056.16;5027462;27;99246;-73
2023/09/22 11:07:42;;;;;;;2.97;1.10;;;;;;;23.54;65.23;100047.84;5029486;27;101427;-74
2023/09/22 11:10:10;;;;;;;4.18;1.17;;;;;;;23.50;64.80;100055.38;5021856;27;98497;-75
2023/09/22 11:12:38;;;;;;;3.40;1.30;;;;;;;23.51;64.95;100046.28;5023880;27;97218;-74
2023/09/22 11:15:05;;;;;;;2.45;0.90;;;;;;;23.69;64.05;100049.84;5025718;27;97941;-76
2023/09/22 11:17:38;;;;;;;1.30;1.00;;;;;;;23.76;63.59;100050.91;5025410;27;98763;-74
2023/09/22 11:20:12;;;;;;;3.33;1.30;;;;;;;23.95;62.54;100041.81;5027034;27;96858;-74
2023/09/22 11:22:39;;;;;;;3.90;1.10;;;;;;;24.09;62.09;100035.81;5027401;27;97857;-75
2023/09/22 11:25:07;;;;;;;13.13;2.28;;;;;;;23.66;62.90;100035.81;5025513;27;99333;-75
2023/09/22 11:27:43;;;;;;;3.35;1.92;;;;;;;24.20;63.00;100032.91;5028305;27;99528;-75
2023/09/22 11:30:16;;;;;;;8.60;2.28;;;;;;;23.91;63.88;100029.59;5029543;27;97232;-75
2023/09/22 11:32:43;;;;;;;2.83;1.58;;;;;;;24.09;63.37;100043.09;5029942;27;96815;-73